Flight Track Log - Related Links

Times and Time Zones

All times are in EDT time to prevent confusion due to time zone crossing. See the ASH3770 flight status page for this flight to view local times or setup timezone preferences in your user account.

Time Position Orientation Groundspeed Altitude Reporting Facility
EDT Latitude Longitude Course Direction KTS MPH feet Rate Location/Type
Wed 03:43:00 PM 38.9500 -77.5167 111° Southeast 172 198 2,300  Level Potomac TRACON
Wed 03:44:06 PM 39.0000 -77.5833 314° West 259 298 4,000 1,686 Climbing Potomac TRACON
Wed 03:45:00 PM 38.7370 -77.3272 124° Southeast  Level Estimated
Wed 03:45:01 PM 39.0500 -77.6500 314° West 284 327 5,700  Level Potomac TRACON
Wed 03:46:00 PM 38.7086 -77.2338 111° Southeast  Level FlightAware Approximate
Wed 03:46:01 PM 39.1167 -77.7000 330° Northwest 302 348 8,600  Level Potomac TRACON
Wed 03:47:00 PM 38.6802 -77.1405 111° Southeast  Level FlightAware Approximate
Wed 03:47:01 PM 39.1667 -77.6167 52° Northeast 328 377 10,100  Level Potomac TRACON
Wed 03:48:00 PM 38.6518 -77.0473 111° Southeast  Level FlightAware Approximate
Wed 03:48:01 PM 39.2000 -77.5000 70° East 347 399 10,100  Level Potomac TRACON
Wed 03:49:01 PM 39.2000 -77.3667 90° East 358 412 10,100 -50 Level Potomac TRACON
Wed 03:50:01 PM 39.1667 -77.2500 110° East 350 403 10,000 500 Descending Potomac TRACON
Wed 03:51:01 PM 39.1333 -77.1333 110° East 339 390 11,100 1,526 Climbing Potomac TRACON
Wed 03:51:55 PM 39.1167 -77.0333 102° East 355 409 12,900 1,000 Climbing Potomac TRACON
Wed 03:52:55 PM 39.0500 -76.9333 131° Southeast 349 402 13,000 50 Climbing Potomac TRACON
Wed 03:53:55 PM 38.9833 -76.8667 142° Southeast 331 381 13,000 48 Level Potomac TRACON
Wed 03:55:01 PM 38.8833 -76.8333 165° South 340 391 13,100 48 Climbing Potomac TRACON
Wed 03:56:01 PM 38.8000 -76.8000 163° South 335 386 13,100 356 Level Potomac TRACON
Wed 03:57:16 PM 38.6928 -76.7728 169° South 337 388 13,900 441 Climbing Washington Center
Wed 03:58:17 PM 38.6036 -76.7419 165° South 337 388 14,100 31 Climbing Washington Center
Wed 04:00:27 PM 38.4225 -76.7100 172° South 332 382 14,000 -31 Descending Washington Center
Wed 04:01:29 PM 38.3161 -76.6953 174° South 332 382 14,000  Level Washington Center
Wed 04:02:27 PM 38.2289 -76.6650 165° South 332 382 14,000  Level Washington Center
Wed 04:03:27 PM 38.1414 -76.6664 181° South 327 376 14,000 50 Level Washington Center
Wed 04:04:27 PM 38.0494 -76.6675 181° South 327 376 14,100 -49 Climbing Washington Center
Wed 04:05:29 PM 37.9597 -76.6742 183° South 327 376 13,900 -639 Descending Washington Center
Wed 04:06:29 PM 37.8722 -76.6783 182° South 327 376 12,800 -1,152 Descending Washington Center
Wed 04:07:08 PM 37.8183 -76.6406 151° Southeast 325 374 12,000 -966 Descending Washington Center
Wed 04:08:27 PM 37.7378 -76.5319 133° Southeast 306 352 10,900 -863 Descending Washington Center
Wed 04:09:27 PM 37.6781 -76.4472 132° Southeast 311 358 10,000 -446 Descending Washington Center
Wed 04:10:28 PM 37.6117 -76.3600 134° Southeast 317 365 10,000  Level Washington Center
Wed 04:11:28 PM 37.5497 -76.2992 142° Southeast 317 365 10,000 -694 Level Washington Center
Wed 04:12:29 PM 37.4642 -76.2617 161° South 275 316 8,600 -1,361 Descending Washington Center
Wed 04:13:27 PM 37.4061 -76.2297 156° South 286 329 7,300 -1,664 Descending Washington Center
Wed 04:14:28 PM 37.3269 -76.1900 158° South 275 316 5,300 -1,678 Descending Washington Center
Wed 04:15:25 PM 37.2644 -76.1608 160° South 261 300 4,000 -655 Descending Washington Center
Wed 04:16:27 PM 37.1958 -76.1264 158° South 259 298 4,000 -93 Level Washington Center
Wed 04:17:34 PM 37.1461 -76.0608 134° Southeast 231 266 3,800 -582 Descending Washington Center
Wed 04:18:41 PM 37.1003 -75.9981 132° Southeast 213 245 2,700 -939 Descending Washington Center
Wed 04:19:29 PM 37.0711 -76.0319 223° Southwest 199 229 2,000 -495 Descending Washington Center
Wed 04:20:30 PM 37.0231 -76.0783 218° Southwest 197 227 1,800 -197 Descending Washington Center

Login

Don't have an account? Register now (free) for customized features, flight alerts, and more!